Time;durP1;ratioP1;P1;durP2;ratioP2;P2;SDS_P1;SDS_P2;PMS_P1;PMS_P2;Temp;Humidity;BMP_temperature;BMP_pressure;BME280_temperature;BME280_humidity;BME280_pressure;Samples;Min_cycle;Max_cycle;Signal;HPM_P1;HPM_P2
2022/08/28 00:00:16;;;;;;;12.50;3.63;;;15.30;99.90;;;;;;5077453;28;20056;-67
2022/08/28 00:02:42;;;;;;;7.90;3.60;;;15.30;99.90;;;;;;5095632;28;20534;-67
2022/08/28 00:05:10;;;;;;;9.50;3.63;;;15.30;99.90;;;;;;5095404;28;20270;-67
2022/08/28 00:07:36;;;;;;;10.10;3.53;;;15.30;99.90;;;;;;5095509;28;20048;-67
2022/08/28 00:10:04;;;;;;;10.47;3.30;;;15.30;99.90;;;;;;5094994;28;20347;-67
2022/08/28 00:12:30;;;;;;;14.27;3.57;;;15.20;99.90;;;;;;5095449;28;20286;-67
2022/08/28 00:14:56;;;;;;;9.60;3.50;;;15.20;99.90;;;;;;5093994;28;20306;-67
2022/08/28 00:17:22;;;;;;;11.50;3.90;;;15.20;99.90;;;;;;5095404;28;20066;-68
2022/08/28 00:19:48;;;;;;;11.23;3.47;;;15.10;99.90;;;;;;5095131;28;20278;-67
2022/08/28 00:22:13;;;;;;;10.97;3.63;;;15.10;99.90;;;;;;5095063;28;20036;-67
2022/08/28 00:24:41;;;;;;;12.77;3.80;;;15.10;99.90;;;;;;5094993;28;20534;-67
2022/08/28 00:29:51;;;;;;;11.77;3.70;;;15.10;99.90;;;;;;5094608;28;20766;-67
2022/08/28 00:32:17;;;;;;;11.40;3.30;;;15.10;99.90;;;;;;5094971;28;20329;-67
2022/08/28 00:34:43;;;;;;;9.73;4.10;;;15.00;99.90;;;;;;5094744;28;20043;-67
2022/08/28 00:37:09;;;;;;;10.13;3.13;;;15.00;99.90;;;;;;5094521;28;20521;-67
2022/08/28 00:39:34;;;;;;;11.23;3.33;;;14.90;99.90;;;;;;5093748;28;20048;-67
2022/08/28 00:42:00;;;;;;;11.07;3.60;;;14.90;99.90;;;;;;5094589;28;20377;-67
2022/08/28 00:44:27;;;;;;;10.03;3.50;;;14.90;99.90;;;;;;5094778;28;20127;-67
2022/08/28 00:46:55;;;;;;;12.27;4.37;;;14.90;99.90;;;;;;5093220;28;20048;-67
2022/08/28 00:49:25;;;;;;;11.03;3.43;;;14.90;99.90;;;;;;5094598;28;20285;-67
2022/08/28 00:52:10;;;;;;;10.50;3.67;;;14.90;99.90;;;;;;5094236;28;20746;-67
2022/08/28 00:54:44;;;;;;;8.18;3.78;;;14.80;99.90;;;;;;5094713;28;20435;-66
2022/08/28 00:57:14;;;;;;;10.83;3.83;;;14.90;99.90;;;;;;5094272;28;20079;-67
2022/08/28 00:59:41;;;;;;;10.63;3.60;;;14.80;99.90;;;;;;5094514;28;20769;-67
2022/08/28 01:02:07;;;;;;;10.03;3.50;;;14.80;99.90;;;;;;5094140;28;20281;-67
2022/08/28 01:04:33;;;;;;;8.83;3.40;;;14.80;99.90;;;;;;5094383;28;20270;-67
2022/08/28 01:07:04;;;;;;;9.47;3.50;;;14.80;99.90;;;;;;5094167;28;20436;-67
2022/08/28 01:09:31;;;;;;;10.37;3.50;;;14.80;99.90;;;;;;5094361;28;20285;-67
2022/08/28 01:12:03;;;;;;;7.43;3.43;;;14.80;99.90;;;;;;5093830;28;20757;-67
2022/08/28 01:14:31;;;;;;;10.67;3.60;;;14.80;99.90;;;;;;5093862;28;20292;-67
2022/08/28 01:16:57;;;;;;;13.13;4.30;;;14.80;99.90;;;;;;5093888;28;20278;-67
2022/08/28 01:19:39;;;;;;;9.50;3.73;;;14.80;99.90;;;;;;5094414;28;20266;-67
2022/08/28 01:22:35;;;;;;;11.77;3.30;;;14.70;99.90;;;;;;5094057;28;20278;-67
2022/08/28 01:25:04;;;;;;;9.87;3.30;;;14.70;99.90;;;;;;5092825;28;20305;-67
2022/08/28 01:27:30;;;;;;;12.00;3.80;;;14.70;99.90;;;;;;5076164;28;20351;-67
2022/08/28 01:29:56;;;;;;;10.63;3.77;;;14.70;99.90;;;;;;5093718;28;20285;-67
2022/08/28 01:32:37;;;;;;;10.30;3.27;;;14.70;99.90;;;;;;5092764;28;20545;-67
2022/08/28 01:35:06;;;;;;;9.70;3.60;;;14.70;99.90;;;;;;5093485;28;20294;-67
2022/08/28 01:37:31;;;;;;;9.07;3.87;;;14.60;99.90;;;;;;5093552;28;20284;-67
2022/08/28 01:39:57;;;;;;;10.70;3.53;;;14.60;99.90;;;;;;5093553;28;20291;-67
2022/08/28 01:42:24;;;;;;;12.33;3.87;;;14.60;99.90;;;;;;5092633;28;20044;-67
2022/08/28 01:44:52;;;;;;;12.30;3.97;;;14.60;99.90;;;;;;5092455;28;20042;-66
2022/08/28 01:47:20;;;;;;;10.93;3.53;;;14.60;99.90;;;;;;5093454;28;20304;-67
2022/08/28 01:49:46;;;;;;;10.47;3.40;;;14.50;99.90;;;;;;5093409;28;20688;-67
2022/08/28 01:52:12;;;;;;;11.93;3.50;;;14.50;99.90;;;;;;5092898;28;20275;-67
2022/08/28 01:54:39;;;;;;;10.13;3.40;;;14.50;99.90;;;;;;5092748;28;20298;-67
2022/08/28 01:57:05;;;;;;;10.03;3.40;;;14.50;99.90;;;;;;5093304;28;20048;-67
2022/08/28 01:59:32;;;;;;;11.17;3.80;;;14.40;99.90;;;;;;5093326;28;20375;-67
2022/08/28 02:01:57;;;;;;;10.53;3.87;;;14.40;99.90;;;;;;5093181;28;20362;-67
2022/08/28 02:04:23;;;;;;;11.33;4.53;;;14.40;99.90;;;;;;5093214;28;20316;-66
2022/08/28 02:06:49;;;;;;;10.07;3.60;;;14.50;99.90;;;;;;5093154;28;20547;-67
2022/08/28 02:09:15;;;;;;;10.60;4.10;;;14.50;99.90;;;;;;5093079;28;20043;-67
2022/08/28 02:11:42;;;;;;;9.63;3.53;;;14.40;99.90;;;;;;5093154;28;20400;-67
2022/08/28 02:14:08;;;;;;;11.47;4.83;;;14.50;99.90;;;;;;5092643;28;20510;-67
2022/08/28 02:16:34;;;;;;;10.37;3.40;;;14.40;99.90;;;;;;5092935;28;20298;-67
2022/08/28 02:19:00;;;;;;;10.67;3.63;;;14.50;99.90;;;;;;5091708;28;20627;-67
2022/08/28 02:21:25;;;;;;;9.20;3.50;;;14.50;99.90;;;;;;5092957;28;20052;-67
2022/08/28 02:23:52;;;;;;;14.63;3.33;;;14.50;99.90;;;;;;5091846;28;20051;-67
2022/08/28 02:26:19;;;;;;;13.67;3.10;;;14.50;99.90;;;;;;5092835;28;20526;-67
2022/08/28 02:28:45;;;;;;;11.40;3.87;;;14.40;99.90;;;;;;5091975;28;20286;-67
2022/08/28 02:31:11;;;;;;;8.87;3.50;;;14.40;99.90;;;;;;5091456;28;20266;-67
2022/08/28 02:33:39;;;;;;;11.13;4.20;;;14.40;99.90;;;;;;5091974;28;20051;-67
2022/08/28 02:36:07;;;;;;;7.70;3.53;;;14.30;99.90;;;;;;5092390;28;20301;-67
2022/08/28 02:38:33;;;;;;;13.20;3.57;;;14.30;99.90;;;;;;5092403;28;20320;-67
2022/08/28 02:40:59;;;;;;;9.50;3.37;;;14.30;99.90;;;;;;5091360;28;20285;-69
2022/08/28 02:43:25;;;;;;;9.50;3.53;;;14.20;99.90;;;;;;5091760;28;20040;-67
2022/08/28 02:45:51;;;;;;;10.10;3.00;;;14.30;99.90;;;;;;5092782;28;20119;-66
2022/08/28 02:48:16;;;;;;;7.60;2.93;;;14.30;99.90;;;;;;5092497;28;20543;-67
2022/08/28 02:50:42;;;;;;;10.40;3.30;;;14.20;99.90;;;;;;5091631;28;20383;-67
2022/08/28 02:53:10;;;;;;;9.33;3.30;;;14.20;99.90;;;;;;5091493;28;20086;-67
2022/08/28 02:55:36;;;;;;;10.13;3.20;;;14.10;99.90;;;;;;5092659;28;20294;-67
2022/08/28 02:58:02;;;;;;;10.53;3.20;;;14.20;99.90;;;;;;5092319;28;20278;-67
2022/08/28 03:00:28;;;;;;;11.43;3.33;;;14.20;99.90;;;;;;5092524;28;20126;-67
2022/08/28 03:02:53;;;;;;;9.47;3.63;;;14.20;99.90;;;;;;5092517;28;20762;-66
2022/08/28 03:05:22;;;;;;;9.07;2.97;;;14.10;99.90;;;;;;5092174;28;20044;-66
2022/08/28 03:07:49;;;;;;;7.43;2.90;;;14.10;99.90;;;;;;5092778;28;20044;-66
2022/08/28 03:10:15;;;;;;;9.77;3.50;;;14.10;99.90;;;;;;5092346;28;20289;-66
2022/08/28 03:12:41;;;;;;;7.37;2.80;;;14.10;99.90;;;;;;5092532;28;20278;-66
2022/08/28 03:15:07;;;;;;;10.80;4.13;;;14.10;99.90;;;;;;5092128;28;20137;-67
2022/08/28 03:17:35;;;;;;;7.97;2.83;;;14.10;99.90;;;;;;5092446;28;20048;-66
2022/08/28 03:20:01;;;;;;;12.33;3.33;;;14.10;99.90;;;;;;5092701;28;20295;-66
2022/08/28 03:25:12;;;;;;;14.67;3.83;;;14.00;99.90;;;;;;5092112;28;20274;-66
2022/08/28 03:27:38;;;;;;;11.30;2.90;;;14.00;99.90;;;;;;5092509;28;20285;-66
2022/08/28 03:30:06;;;;;;;10.50;3.60;;;13.90;99.90;;;;;;5090891;28;20044;-66
2022/08/28 03:32:32;;;;;;;10.30;3.23;;;13.90;99.90;;;;;;5092500;28;20282;-66
2022/08/28 03:34:58;;;;;;;9.50;3.67;;;13.90;99.90;;;;;;5092093;28;20642;-66
2022/08/28 03:37:24;;;;;;;9.07;3.37;;;13.90;99.90;;;;;;5091051;28;20282;-66
2022/08/28 03:39:50;;;;;;;13.80;3.83;;;14.00;99.90;;;;;;5091351;28;20480;-66
2022/08/28 03:42:16;;;;;;;8.60;2.70;;;14.00;99.90;;;;;;5090764;28;20281;-66
2022/08/28 03:44:42;;;;;;;11.53;3.10;;;14.00;99.90;;;;;;5091154;28;20052;-66
2022/08/28 03:47:08;;;;;;;7.23;2.67;;;14.00;99.90;;;;;;5090854;28;20048;-66
2022/08/28 03:49:34;;;;;;;9.13;2.93;;;13.90;99.90;;;;;;5091441;28;20113;-66
2022/08/28 03:51:59;;;;;;;8.63;2.63;;;13.90;99.90;;;;;;5095652;28;20039;-66
2022/08/28 03:54:25;;;;;;;8.23;2.93;;;13.90;99.90;;;;;;5095336;28;20883;-66
2022/08/28 03:56:51;;;;;;;8.63;3.17;;;13.90;99.90;;;;;;5095760;28;20071;-66
2022/08/28 03:59:18;;;;;;;8.60;2.37;;;13.90;99.90;;;;;;5095278;28;20048;-66
2022/08/28 04:01:44;;;;;;;7.93;3.10;;;13.90;99.90;;;;;;5094984;28;20520;-66
2022/08/28 04:04:10;;;;;;;8.80;2.63;;;13.90;99.90;;;;;;5095361;28;20333;-67
2022/08/28 04:06:35;;;;;;;7.07;2.47;;;13.90;99.90;;;;;;5095569;28;20066;-66
2022/08/28 04:09:01;;;;;;;8.03;2.73;;;13.90;99.90;;;;;;5095449;28;20048;-66
2022/08/28 04:11:28;;;;;;;7.93;2.50;;;13.80;99.90;;;;;;5095193;28;20051;-66
2022/08/28 04:13:53;;;;;;;9.00;3.00;;;13.90;99.90;;;;;;5095309;28;20446;-67
2022/08/28 04:16:19;;;;;;;8.43;2.97;;;13.90;99.90;;;;;;5095099;28;20294;-67
2022/08/28 04:18:47;;;;;;;9.77;3.00;;;13.80;99.90;;;;;;5095416;28;20139;-67
2022/08/28 04:21:16;;;;;;;14.07;2.50;;;13.80;99.90;;;;;;5094987;28;20047;-67
2022/08/28 04:23:43;;;;;;;8.93;2.50;;;13.80;99.90;;;;;;5095261;28;20353;-67
2022/08/28 04:26:12;;;;;;;8.43;2.73;;;13.70;99.90;;;;;;5095170;28;20270;-67
2022/08/28 04:28:38;;;;;;;8.87;2.73;;;13.80;99.90;;;;;;5094984;28;20853;-67
2022/08/28 04:31:04;;;;;;;10.83;2.80;;;13.80;99.90;;;;;;5095194;28;20373;-67
2022/08/28 04:33:31;;;;;;;9.93;3.00;;;13.80;99.90;;;;;;5094829;28;20044;-67
2022/08/28 04:36:02;;;;;;;11.30;2.73;;;13.80;99.90;;;;;;5095054;28;20298;-67
2022/08/28 04:38:28;;;;;;;8.57;2.63;;;13.80;99.90;;;;;;5094648;28;20335;-67
2022/08/28 04:40:53;;;;;;;10.17;2.83;;;13.90;99.90;;;;;;5094757;28;20313;-67
2022/08/28 04:43:20;;;;;;;10.27;2.70;;;13.90;99.90;;;;;;5094423;28;20749;-67
2022/08/28 04:45:45;;;;;;;6.87;1.97;;;13.90;99.90;;;;;;5094861;28;20041;-67
2022/08/28 04:48:12;;;;;;;7.60;2.80;;;13.90;99.90;;;;;;5094882;28;20271;-67
2022/08/28 04:50:43;;;;;;;9.67;2.60;;;13.90;99.90;;;;;;5094470;28;20451;-67
2022/08/28 04:53:10;;;;;;;11.83;2.73;;;13.90;99.90;;;;;;5094806;28;20361;-67
2022/08/28 04:55:44;;;;;;;9.97;2.50;;;13.90;99.90;;;;;;5094192;28;20308;-67
2022/08/28 04:58:10;;;;;;;6.65;2.45;;;13.90;99.90;;;;;;5093404;28;20274;-67
2022/08/28 05:00:42;;;;;;;13.13;3.00;;;14.00;99.90;;;;;;5093936;28;20063;-67
2022/08/28 05:03:10;;;;;;;9.40;2.60;;;14.00;99.90;;;;;;5093467;28;20286;-67
2022/08/28 05:05:47;;;;;;;7.47;2.43;;;14.00;99.90;;;;;;5094122;28;20292;-67
2022/08/28 05:08:16;;;;;;;7.10;2.20;;;14.00;99.90;;;;;;5094192;28;20812;-67
2022/08/28 05:10:43;;;;;;;9.33;2.70;;;14.00;99.90;;;;;;5094765;28;20363;-66
2022/08/28 05:13:11;;;;;;;7.87;2.40;;;14.00;99.90;;;;;;5092907;28;20277;-66
2022/08/28 05:15:38;;;;;;;8.00;2.53;;;14.10;99.90;;;;;;5093936;28;20389;-66
2022/08/28 05:18:04;;;;;;;9.33;2.33;;;14.10;99.90;;;;;;5094179;28;20300;-66
2022/08/28 05:20:35;;;;;;;9.00;2.40;;;14.10;99.90;;;;;;5093717;28;20746;-66
2022/08/28 05:23:01;;;;;;;9.10;2.63;;;14.10;99.90;;;;;;5094413;28;20056;-66
2022/08/28 05:25:27;;;;;;;9.30;2.67;;;14.20;99.90;;;;;;5094022;28;20738;-66
2022/08/28 05:27:52;;;;;;;12.70;2.87;;;14.20;99.90;;;;;;5093989;28;20040;-67
2022/08/28 05:30:18;;;;;;;8.67;2.73;;;14.30;99.90;;;;;;5093661;28;20054;-67
2022/08/28 05:32:44;;;;;;;8.40;2.10;;;14.30;99.90;;;;;;5093741;28;20052;-67
2022/08/28 05:35:09;;;;;;;8.10;2.30;;;14.30;99.90;;;;;;5093538;28;20044;-67
2022/08/28 05:37:35;;;;;;;8.03;2.40;;;14.30;99.90;;;;;;5093607;28;20135;-67
2022/08/28 05:40:01;;;;;;;8.23;2.30;;;14.30;99.90;;;;;;5093661;28;20056;-66
2022/08/28 05:42:27;;;;;;;9.20;2.30;;;14.40;99.90;;;;;;5093536;28;20063;-67
2022/08/28 05:44:52;;;;;;;7.97;2.57;;;14.50;99.90;;;;;;5093683;28;20176;-66
2022/08/28 05:47:18;;;;;;;9.80;2.47;;;14.50;99.90;;;;;;5093511;28;20096;-66
2022/08/28 05:49:45;;;;;;;9.37;2.43;;;14.60;99.90;;;;;;5093206;28;20070;-67
2022/08/28 05:52:11;;;;;;;11.13;2.40;;;14.60;99.90;;;;;;5093629;28;20377;-66
2022/08/28 05:54:37;;;;;;;9.80;2.70;;;14.70;99.90;;;;;;5093167;28;20285;-66
2022/08/28 05:57:03;;;;;;;11.40;2.47;;;14.80;99.90;;;;;;5092542;28;20476;-66
2022/08/28 05:59:29;;;;;;;8.90;2.03;;;14.80;99.90;;;;;;5093023;28;20044;-67
2022/08/28 06:01:56;;;;;;;9.77;2.03;;;15.00;99.90;;;;;;5093177;28;20284;-66
2022/08/28 06:04:25;;;;;;;9.97;2.53;;;15.00;99.90;;;;;;5091864;28;20043;-68
2022/08/28 06:06:51;;;;;;;10.10;2.43;;;15.20;99.90;;;;;;5093603;28;20278;-66
2022/08/28 06:09:26;;;;;;;9.60;2.30;;;15.30;99.90;;;;;;5093311;28;20385;-66
2022/08/28 06:11:53;;;;;;;9.30;2.30;;;15.80;99.90;;;;;;5093274;28;20282;-66
2022/08/28 06:14:19;;;;;;;6.00;2.10;;;17.10;99.90;;;;;;5092143;28;20131;-67
2022/08/28 06:16:48;;;;;;;9.07;2.43;;;17.80;99.90;;;;;;5092601;28;20342;-67
2022/08/28 06:19:15;;;;;;;7.07;2.60;;;18.90;99.90;;;;;;5092062;28;20047;-67
2022/08/28 06:21:42;;;;;;;9.73;2.33;;;21.10;99.90;;;;;;5092923;28;20044;-67
2022/08/28 06:24:09;;;;;;;6.93;2.07;;;22.70;99.90;;;;;;5091808;28;20084;-67
2022/08/28 06:26:35;;;;;;;6.87;1.83;;;23.70;99.90;;;;;;5092675;28;20048;-67
2022/08/28 06:29:07;;;;;;;7.57;2.30;;;24.40;79.60;;;;;;5092954;28;20044;-69
2022/08/28 06:31:33;;;;;;;8.40;2.83;;;25.10;68.50;;;;;;5091421;28;20050;-68
2022/08/28 06:34:00;;;;;;;8.60;2.10;;;25.30;93.20;;;;;;5093072;28;20568;-68
2022/08/28 06:36:27;;;;;;;5.33;2.07;;;;;;;;;;5092678;28;20068;-70
2022/08/28 06:38:54;;;;;;;6.17;2.00;;;;;;;;;;5093055;28;20040;-68
2022/08/28 06:41:20;;;;;;;6.37;2.30;;;;;;;;;;5093026;28;20058;-69
2022/08/28 06:43:47;;;;;;;7.80;2.30;;;;;;;;;;5092452;28;20052;-69
2022/08/28 06:46:13;;;;;;;7.73;2.57;;;;;;;;;;5094893;28;20135;-70
2022/08/28 06:48:39;;;;;;;8.07;2.10;;;;;;;;;;5091420;28;20126;-70
2022/08/28 06:51:08;;;;;;;7.17;2.37;;;;;;;;;;5093110;28;20456;-70
2022/08/28 06:53:34;;;;;;;7.53;2.07;;;;;;;;;;5092249;28;20399;-69
2022/08/28 06:56:05;;;;;;;5.93;2.00;;;;;;;;;;5092592;28;20044;-70
2022/08/28 06:58:31;;;;;;;6.37;2.40;;;;;;;;;;5092240;28;20447;-70
2022/08/28 07:01:24;;;;;;;6.67;2.17;;;;;;;;;;5091245;28;20052;-69
2022/08/28 07:03:51;;;;;;;6.33;2.40;;;;;;;;;;5088424;28;20139;-69
2022/08/28 07:06:17;;;;;;;8.97;2.43;;;;;;;;;;5092648;28;20189;-70
2022/08/28 07:08:44;;;;;;;7.13;2.20;;;;;;;;;;5092294;28;20047;-70
2022/08/28 07:11:12;;;;;;;6.80;2.10;;;;;;;;;;5092245;28;20070;-70
2022/08/28 07:13:39;;;;;;;6.63;2.40;;;;;;;;;;5092233;28;20067;-69
2022/08/28 07:16:05;;;;;;;6.95;2.35;;;;;;;;;;5092565;28;20048;-69
2022/08/28 07:18:32;;;;;;;5.72;2.00;;;;;;;;;;5091239;28;20059;-70
2022/08/28 07:21:02;;;;;;;5.30;2.00;;;;;;;;;;5092438;28;20056;-70
2022/08/28 07:23:29;;;;;;;8.77;2.47;;;30.80;42.00;;;;;;5092441;28;20044;-70
2022/08/28 07:25:55;;;;;;;8.57;2.28;;;30.50;43.40;;;;;;5095969;28;20047;-70
2022/08/28 07:28:21;;;;;;;8.77;2.40;;;30.00;43.90;;;;;;5096358;28;20132;-70
2022/08/28 07:31:09;;;;;;;5.68;2.50;;;29.00;44.50;;;;;;5095991;28;20134;-70
2022/08/28 07:33:36;;;;;;;6.20;2.28;;;28.40;45.90;;;;;;5096005;28;20097;-70
2022/08/28 07:36:04;;;;;;;8.25;2.47;;;27.10;46.10;;;;;;5095963;28;20040;-69
2022/08/28 07:38:29;;;;;;;8.75;2.35;;;27.00;46.60;;;;;;5096033;28;20075;-69
2022/08/28 07:40:55;;;;;;;7.35;2.33;;;26.10;47.50;;;;;;5095874;28;20148;-69
2022/08/28 07:46:07;;;;;;;6.45;1.88;;;;;;;;;;5096176;28;20052;-69
2022/08/28 07:48:37;;;;;;;8.83;2.13;;;23.60;52.00;;;;;;5095704;28;20044;-68
2022/08/28 07:51:04;;;;;;;7.03;2.20;;;;;;;;;;5095941;28;20063;-68
2022/08/28 07:53:30;;;;;;;8.23;2.53;;;;;;;;;;5095874;28;20476;-68
2022/08/28 07:55:55;;;;;;;7.23;2.30;;;22.30;60.30;;;;;;5095421;28;20042;-69
2022/08/28 07:58:24;;;;;;;9.43;2.77;;;22.60;62.50;;;;;;5094676;28;20044;-68
2022/08/28 08:00:50;;;;;;;6.97;1.93;;;22.70;62.90;;;;;;5095374;28;20488;-69
2022/08/28 08:03:16;;;;;;;7.50;2.20;;;22.80;63.10;;;;;;5095533;28;20036;-68
2022/08/28 08:05:54;;;;;;;5.27;2.07;;;22.60;64.00;;;;;;5095459;28;20047;-69
2022/08/28 08:08:21;;;;;;;8.63;2.27;;;22.60;64.60;;;;;;5095570;28;20123;-69
2022/08/28 08:11:17;;;;;;;6.27;2.20;;;22.60;66.20;;;;;;5095131;28;20048;-69
2022/08/28 08:13:45;;;;;;;6.37;2.20;;;22.60;67.80;;;;;;5082326;28;20131;-68
2022/08/28 08:16:14;;;;;;;6.60;2.43;;;22.80;66.70;;;;;;5095389;28;20050;-68
2022/08/28 08:18:40;;;;;;;9.20;2.70;;;22.70;65.60;;;;;;5095118;28;20126;-69
2022/08/28 08:21:08;;;;;;;8.30;2.10;;;22.50;65.70;;;;;;5095369;28;20044;-68
2022/08/28 08:23:36;;;;;;;6.63;2.30;;;22.10;65.60;;;;;;5095203;28;20044;-68
2022/08/28 08:26:08;;;;;;;8.90;2.13;;;21.80;67.10;;;;;;5094743;28;20052;-68
2022/08/28 08:28:35;;;;;;;6.40;2.20;;;21.40;72.70;;;;;;5095062;28;20040;-68
2022/08/28 08:31:18;;;;;;;7.93;2.07;;;21.30;71.40;;;;;;5096486;28;20097;-68
2022/08/28 08:33:48;;;;;;;10.00;2.50;;;21.30;74.80;;;;;;5094827;28;20123;-67
2022/08/28 08:36:16;;;;;;;9.37;2.47;;;21.40;75.00;;;;;;5094186;28;20044;-67
2022/08/28 08:38:42;;;;;;;9.20;2.47;;;21.60;74.80;;;;;;5094495;28;20050;-68
2022/08/28 08:41:29;;;;;;;8.20;2.20;;;21.50;75.40;;;;;;5095114;28;20549;-67
2022/08/28 08:43:57;;;;;;;7.77;1.97;;;21.30;75.50;;;;;;5094816;28;20040;-67
2022/08/28 08:46:40;;;;;;;7.53;2.27;;;21.00;78.30;;;;;;5094893;28;20492;-67
2022/08/28 08:49:13;;;;;;;8.53;2.53;;;20.90;80.10;;;;;;5094647;28;20495;-66
2022/08/28 08:51:42;;;;;;;10.17;3.00;;;20.80;81.40;;;;;;5093706;28;20056;-67
2022/08/28 08:54:14;;;;;;;7.17;2.10;;;20.80;82.00;;;;;;5094592;28;20290;-66
2022/08/28 08:56:42;;;;;;;9.83;2.60;;;20.90;83.80;;;;;;5094583;28;20048;-66
2022/08/28 08:59:16;;;;;;;7.83;2.20;;;21.10;83.70;;;;;;5094535;28;20056;-67
2022/08/28 09:02:17;;;;;;;7.40;2.47;;;21.20;81.00;;;;;;5094160;28;20044;-69
2022/08/28 09:04:50;;;;;;;9.80;2.40;;;21.10;83.30;;;;;;5094253;28;20128;-68
2022/08/28 09:07:19;;;;;;;7.30;2.33;;;21.00;83.80;;;;;;5094848;28;20067;-67
2022/08/28 09:09:54;;;;;;;6.27;2.30;;;20.80;83.20;;;;;;5093994;28;20127;-67
2022/08/28 09:12:29;;;;;;;7.03;2.53;;;20.70;83.20;;;;;;5094423;28;20047;-68
2022/08/28 09:15:13;;;;;;;9.63;2.27;;;20.60;84.90;;;;;;5093885;28;20547;-69
2022/08/28 09:17:45;;;;;;;6.77;2.40;;;20.70;88.00;;;;;;5094166;28;20086;-70
2022/08/28 09:20:18;;;;;;;9.27;2.40;;;20.90;86.80;;;;;;5094042;28;20055;-69
2022/08/28 09:22:47;;;;;;;12.05;2.80;;;20.90;85.10;;;;;;5093694;28;20044;-69
2022/08/28 09:25:50;;;;;;;8.63;2.27;;;20.80;85.10;;;;;;5094052;28;20043;-69
2022/08/28 09:28:21;;;;;;;7.50;2.67;;;20.60;87.60;;;;;;5094043;28;20040;-68
2022/08/28 09:31:01;;;;;;;6.57;2.20;;;20.60;88.00;;;;;;5093464;28;20092;-69
2022/08/28 09:33:28;;;;;;;8.63;3.00;;;20.80;89.40;;;;;;5093996;28;20480;-68
2022/08/28 09:35:54;;;;;;;9.80;2.43;;;20.90;89.80;;;;;;5092768;28;20032;-69
2022/08/28 09:38:23;;;;;;;7.67;2.30;;;20.90;88.60;;;;;;5092986;28;20105;-69
2022/08/28 09:43:45;;;;;;;7.23;2.73;;;21.10;89.20;;;;;;5092765;28;20052;-71
2022/08/28 09:46:31;;;;;;;7.73;2.20;;;21.30;88.40;;;;;;5092953;28;20491;-70
2022/08/28 09:49:12;;;;;;;9.23;2.30;;;21.30;83.70;;;;;;5093360;28;20048;-70
2022/08/28 09:51:38;;;;;;;6.80;2.57;;;21.30;81.80;;;;;;5092431;28;20077;-71
2022/08/28 09:54:22;;;;;;;9.03;2.23;;;21.10;81.70;;;;;;5092154;28;20040;-71
2022/08/28 09:56:49;;;;;;;6.60;2.20;;;21.10;80.60;;;;;;5093465;28;20052;-71
2022/08/28 09:59:18;;;;;;;6.77;2.40;;;21.20;81.30;;;;;;5093626;28;20044;-71
2022/08/28 10:01:56;;;;;;;6.57;2.10;;;21.20;79.60;;;;;;5092370;28;20044;-71
2022/08/28 10:04:43;;;;;;;8.80;2.50;;;21.10;77.90;;;;;;5093293;28;20271;-70
2022/08/28 10:07:27;;;;;;;8.23;2.50;;;21.00;77.30;;;;;;5093169;28;20150;-71
2022/08/28 10:09:59;;;;;;;9.23;2.58;;;20.80;79.00;;;;;;5091903;28;20048;-70
2022/08/28 10:12:50;;;;;;;7.17;2.50;;;20.80;80.30;;;;;;5093088;28;20062;-68
2022/08/28 10:15:31;;;;;;;8.70;2.23;;;20.80;81.10;;;;;;5093248;28;20044;-68
2022/08/28 10:18:16;;;;;;;8.07;2.50;;;20.90;82.20;;;;;;5091907;28;20508;-71
2022/08/28 10:20:55;;;;;;;10.33;2.20;;;20.90;81.10;;;;;;5092997;28;20548;-70
2022/08/28 10:23:45;;;;;;;5.63;2.60;;;21.10;82.00;;;;;;5093566;28;20060;-69
2022/08/28 10:26:26;;;;;;;7.13;2.17;;;21.20;81.10;;;;;;5092978;28;20277;-75
2022/08/28 10:29:13;;;;;;;7.80;2.17;;;21.20;77.90;;;;;;5092550;28;20036;-69
2022/08/28 10:31:48;;;;;;;7.10;2.30;;;21.00;78.70;;;;;;5089895;28;20044;-70
2022/08/28 10:34:13;;;;;;;9.03;2.77;;;20.90;80.90;;;;;;5090090;28;20043;-71
2022/08/28 10:36:41;;;;;;;6.53;2.03;;;20.90;79.90;;;;;;5091313;28;20062;-67
2022/08/28 10:39:41;;;;;;;7.93;2.27;;;20.90;79.60;;;;;;5092145;28;20063;-68
2022/08/28 10:42:07;;;;;;;8.40;2.50;;;21.10;79.20;;;;;;5092836;28;20376;-68
2022/08/28 10:44:59;;;;;;;7.57;2.13;;;21.10;78.70;;;;;;5092951;28;20050;-72
2022/08/28 10:47:28;;;;;;;5.80;2.00;;;21.10;76.60;;;;;;5087996;28;20056;-68
2022/08/28 10:50:00;;;;;;;9.53;2.73;;;20.90;74.70;;;;;;5091561;28;20377;-69
2022/08/28 10:52:37;;;;;;;6.80;2.13;;;20.90;75.00;;;;;;5092257;28;20048;-68
2022/08/28 10:55:10;;;;;;;5.67;2.33;;;20.80;73.80;;;;;;5091657;28;20040;-68
2022/08/28 10:57:43;;;;;;;7.03;2.23;;;20.90;74.60;;;;;;5092888;28;20069;-67
2022/08/28 11:00:22;;;;;;;8.07;2.57;;;21.10;73.70;;;;;;5095014;28;20052;-68
2022/08/28 11:02:56;;;;;;;4.90;2.17;;;21.10;70.30;;;;;;5096894;28;20081;-67
2022/08/28 11:05:24;;;;;;;7.27;2.03;;;21.00;71.30;;;;;;5079099;28;20564;-72
2022/08/28 11:07:55;;;;;;;6.87;2.40;;;21.00;72.40;;;;;;5096868;28;20048;-69
2022/08/28 11:10:36;;;;;;;5.20;2.20;;;21.10;73.10;;;;;;5096589;28;20044;-71
2022/08/28 11:13:05;;;;;;;8.30;2.23;;;21.00;73.30;;;;;;5095987;28;20385;-67
2022/08/28 11:15:30;;;;;;;8.63;2.50;;;21.10;72.90;;;;;;5096703;28;20472;-72
2022/08/28 11:18:14;;;;;;;6.17;1.93;;;21.10;72.80;;;;;;5095670;28;20074;-67
2022/08/28 11:20:53;;;;;;;7.67;2.10;;;21.10;72.90;;;;;;5096403;28;20040;-69
2022/08/28 11:23:28;;;;;;;4.77;2.10;;;21.20;72.50;;;;;;5080506;28;20066;-69
2022/08/28 11:26:00;;;;;;;6.70;1.90;;;21.30;71.50;;;;;;5086121;28;20055;-68
2022/08/28 11:28:35;;;;;;;8.90;2.60;;;21.40;71.90;;;;;;5088097;28;20354;-68
2022/08/28 11:31:04;;;;;;;6.13;2.40;;;21.40;72.00;;;;;;5089825;28;20060;-68
2022/08/28 11:33:37;;;;;;;6.20;2.13;;;21.40;71.80;;;;;;5087661;28;20059;-69
2022/08/28 11:36:32;;;;;;;7.07;1.87;;;21.30;71.80;;;;;;5089438;28;20040;-68
2022/08/28 11:39:16;;;;;;;6.63;2.33;;;21.20;72.20;;;;;;5089116;28;20089;-68
2022/08/28 11:42:24;;;;;;;8.98;2.53;;;21.30;72.90;;;;;;5086279;28;20050;-69
2022/08/28 11:44:50;;;;;;;9.30;2.37;;;21.30;74.90;;;;;;5076007;28;20102;-68
2022/08/28 11:47:51;;;;;;;8.30;2.30;;;21.30;73.80;;;;;;5088606;28;20115;-67
2022/08/28 11:50:24;;;;;;;8.37;2.17;;;21.10;75.30;;;;;;5044022;28;20056;-67
2022/08/28 11:52:49;;;;;;;11.10;2.50;;;21.10;75.40;;;;;;5084821;28;20051;-67
2022/08/28 11:55:28;;;;;;;6.43;2.27;;;20.90;74.40;;;;;;5087354;28;20040;-68
2022/08/28 11:58:33;;;;;;;6.53;2.23;;;20.90;75.60;;;;;;5086541;28;20108;-67
2022/08/28 12:01:05;;;;;;;5.47;2.20;;;20.90;76.70;;;;;;5086482;28;20137;-67
2022/08/28 12:03:37;;;;;;;9.77;2.90;;;21.10;77.50;;;;;;5085799;28;20048;-67
2022/08/28 12:06:04;;;;;;;5.70;2.20;;;21.00;76.50;;;;;;5086707;28;20056;-68
2022/08/28 12:08:54;;;;;;;5.50;2.47;;;21.00;75.90;;;;;;5085962;28;20054;-68
2022/08/28 12:11:38;;;;;;;9.40;3.37;;;21.00;76.80;;;;;;5080806;28;20655;-67
2022/08/28 12:14:06;;;;;;;6.73;2.63;;;21.10;77.60;;;;;;5086470;28;20056;-67
2022/08/28 12:16:57;;;;;;;6.10;2.13;;;21.20;77.00;;;;;;5087323;28;20044;-67
2022/08/28 12:19:28;;;;;;;6.50;2.77;;;21.10;73.20;;;;;;5085863;28;20136;-67
2022/08/28 12:21:55;;;;;;;6.57;2.13;;;21.10;74.80;;;;;;5087338;28;20052;-68
2022/08/28 12:24:23;;;;;;;4.37;1.70;;;21.10;74.30;;;;;;5089006;28;20044;-67
2022/08/28 12:26:54;;;;;;;4.27;1.87;;;21.10;70.20;;;;;;5089281;28;20032;-67
2022/08/28 12:29:35;;;;;;;5.27;2.07;;;21.20;69.70;;;;;;5088320;28;20043;-67
2022/08/28 12:32:43;;;;;;;4.37;1.80;;;21.40;68.50;;;;;;5089829;28;20178;-67
2022/08/28 12:35:20;;;;;;;6.07;1.80;;;21.60;68.10;;;;;;5054499;28;20040;-69
2022/08/28 12:38:02;;;;;;;3.70;1.80;;;21.60;69.50;;;;;;5087778;28;20043;-68
2022/08/28 12:40:46;;;;;;;4.80;2.50;;;21.60;67.90;;;;;;5088964;28;20095;-67
2022/08/28 12:43:17;;;;;;;6.50;1.93;;;21.50;68.50;;;;;;5088031;28;20526;-67
2022/08/28 12:46:00;;;;;;;4.57;1.90;;;21.50;68.90;;;;;;5087181;28;20040;-68
2022/08/28 12:48:46;;;;;;;4.77;1.83;;;21.50;69.70;;;;;;5087892;28;20090;-67
2022/08/28 12:51:17;;;;;;;3.70;1.67;;;21.50;69.20;;;;;;5088595;28;20127;-67
2022/08/28 12:53:50;;;;;;;4.50;1.80;;;21.50;69.00;;;;;;5087576;28;20052;-67
2022/08/28 12:56:18;;;;;;;7.10;2.00;;;21.40;69.30;;;;;;5087918;28;20082;-67
2022/08/28 12:58:45;;;;;;;5.53;1.97;;;21.30;70.00;;;;;;5087693;28;20128;-67
2022/08/28 13:01:19;;;;;;;7.90;2.23;;;21.30;71.20;;;;;;5086557;28;20177;-68
2022/08/28 13:03:57;;;;;;;5.72;2.00;;;21.20;71.90;;;;;;5086617;28;20052;-68
2022/08/28 13:06:32;;;;;;;4.97;1.77;;;21.20;73.20;;;;;;5082706;28;20036;-67
2022/08/28 13:09:12;;;;;;;7.17;2.00;;;21.30;73.90;;;;;;5085020;28;20434;-67
2022/08/28 13:11:44;;;;;;;5.30;2.37;;;21.30;74.00;;;;;;5091263;28;20079;-66
2022/08/28 13:14:10;;;;;;;7.20;2.27;;;21.30;73.50;;;;;;5093893;28;20099;-67
2022/08/28 13:16:44;;;;;;;5.50;1.87;;;21.30;73.80;;;;;;5093137;28;20052;-66
2022/08/28 13:19:29;;;;;;;6.57;2.00;;;21.30;73.90;;;;;;5094080;28;20047;-71
2022/08/28 13:21:59;;;;;;;;;;;21.20;73.70;;;;;;5093765;28;20036;-67